Tenerife Norte / Los Rodeos GCXO

Aviation Digital Data Service (ADDS)

Output produced by METARs form (0106 UTC 29 February 2020)

 
METAR text: GCXO 290100Z AUTO 29013KT 9999 OVC006 13/11 Q1025
Conditions at: GCXO (TENERIFE/LOS ROD, ES) observed 0100 UTC 29 February 2020
Temperature: 13.0°C (55°F)
Dewpoint: 11.0°C (52°F) [RH = 88%]
Pressure (altimeter): 30.27 inches Hg (1025.0 mb)
Winds: from the WNW (290 degrees) at 15 MPH (13 knots; 6.7 m/s)
Visibility: 6 or more miles (10+ km)
Ceiling: 600 feet AGL
Clouds: overcast cloud deck at 600 feet AGL
Weather: no significant weather observed at this time

Forecast for: AMD
Text: TAF AMD GCXO 282330Z 2823/2921 30009KT 9999 FEW008 TX21/2914Z TN11/2906Z
Forecast period: 2300 UTC 28 February 2020 to 2100 UTC 29 February 2020
Forecast type: FROM: standard forecast or significant change
Winds: from the WNW (300 degrees) at 10 MPH (9 knots; 4.6 m/s)
Visibility: 6 or more miles 10+ km)
Ceiling: at least 12,000 feet AGL
Clouds: few clouds at 800 feet AGL
Weather: no significant weather forecast for this period
Text: TEMPO 2823/2903 BKN006
Forecast period: 2300 UTC 28 February 2020 to 0300 UTC 29 February 2020
Forecast type: TEMPORARY: The following changes expected for less than half the time period
Visibility: missing
Ceiling: 600 feet AGL
Clouds: broken clouds at 600 feet AGL
Weather: no significant weather forecast for this period
Text: PROB30
Forecast period: 2300 UTC 28 February 2020 to 0900 UTC 29 February 2020
Forecast type: TEMPORARY: The following changes expected for less than half the time period
Visibility: 2.80 miles (4.51 km)
Ceiling: unknown
Clouds: missing
Weather: BCFG  (patches of fog)

Tenerife Sur / Aeropuerto GCTS

Aviation Digital Data Service (ADDS)

Output produced by METARs form (0106 UTC 29 February 2020)

 
METAR text: GCTS 290100Z 01007KT 9999 FEW020 16/12 Q1023 NOSIG
Conditions at: GCTS (TENERIFE SUR/REI, ES) observed 0100 UTC 29 February 2020
Temperature: 16.0°C (61°F)
Dewpoint: 12.0°C (54°F) [RH = 77%]
Pressure (altimeter): 30.21 inches Hg (1023.0 mb)
Winds: from the N (10 degrees) at 8 MPH (7 knots; 3.6 m/s)
Visibility: 6 or more miles (10+ km)
Ceiling: at least 12,000 feet AGL
Clouds: few clouds at 2000 feet AGL
Weather: no significant weather observed at this time

Forecast for: GCTS (TENERIFE SUR/REI, ES)
Text: TAF GCTS 282000Z 2821/2921 02005KT CAVOK TX24/2914Z TN17/2906Z
Forecast period: 2100 UTC 28 February 2020 to 0900 UTC 29 February 2020
Forecast type: FROM: standard forecast or significant change
Winds: from the NNE (20 degrees) at 6 MPH (5 knots; 2.6 m/s)
Visibility: 6 or more miles 10+ km)
Ceiling: unknown
Clouds: missing
Weather: no significant weather forecast for this period
Text: BECMG 2909/2911 10012KT
Forecast period: 0900 to 2100 UTC 29 February 2020
Forecast type: BECOMING: Conditions expected to become as follows by 1100 UTC 29 February 2020
Winds: from the E (100 degrees) at 14 MPH (12 knots; 6.2 m/s)
Visibility: 6 or more miles 10+ km)
Ceiling: unknown
Clouds: missing
Weather: no significant weather forecast for this period

La Palma / Aeropuerto GCLA

Aviation Digital Data Service (ADDS)

Output produced by METARs form (0107 UTC 29 February 2020)

 
METAR text: GCLA 290100Z AUTO 33007KT 300V360 CAVOK 17/13 Q1024
Conditions at: GCLA (LA PALMA AIRPORT, ES) observed 0100 UTC 29 February 2020
Temperature: 17.0°C (63°F)
Dewpoint: 13.0°C (55°F) [RH = 77%]
Pressure (altimeter): 30.24 inches Hg (1024.0 mb)
Winds: from the NNW (330 degrees) at 8 MPH (7 knots; 3.6 m/s)
Visibility: 6 or more miles (10+ km)
Ceiling: ceiling and visibility are OK
Clouds: unknown
Weather: no significant weather observed at this time

Forecast for: GCLA (LA PALMA AIRPORT, ES)
Text: TAF GCLA 282000Z 2821/2921 01005KT 9999 FEW025 TX23/2914Z TN17/2906Z
Forecast period: 2100 UTC 28 February 2020 to 2100 UTC 29 February 2020
Forecast type: FROM: standard forecast or significant change
Winds: from the N (10 degrees) at 6 MPH (5 knots; 2.6 m/s)
Visibility: 6 or more miles 10+ km)
Ceiling: at least 12,000 feet AGL
Clouds: few clouds at 2500 feet AGL
Weather: no significant weather forecast for this period

Hierro / Aeropuerto GCHI

Aviation Digital Data Service (ADDS)

Output produced by METARs form (0107 UTC 29 February 2020)

 
METAR text: GCHI 290100Z AUTO 36015KT 9999 BKN020 18/14 Q1023
Conditions at: GCHI (HIERRO AIRPORT , ES) observed 0100 UTC 29 February 2020
Temperature: 18.0°C (64°F)
Dewpoint: 14.0°C (57°F) [RH = 77%]
Pressure (altimeter): 30.21 inches Hg (1023.0 mb)
Winds: from the N (360 degrees) at 17 MPH (15 knots; 7.7 m/s)
Visibility: 6 or more miles (10+ km)
Ceiling: 2000 feet AGL
Clouds: broken clouds at 2000 feet AGL
Weather: no significant weather observed at this time

Forecast for: GCHI (HIERRO AIRPORT , ES)
Text: TAF GCHI 282000Z 2821/2921 34009KT 9999 FEW025 TX24/2914Z TN17/2906Z
Forecast period: 2100 UTC 28 February 2020 to 2100 UTC 29 February 2020
Forecast type: FROM: standard forecast or significant change
Winds: from the NNW (340 degrees) at 10 MPH (9 knots; 4.6 m/s)
Visibility: 6 or more miles 10+ km)
Ceiling: at least 12,000 feet AGL
Clouds: few clouds at 2500 feet AGL
Weather: no significant weather forecast for this period

Gran Canaria / Aeropuerto GCLP

Aviation Digital Data Service (ADDS)

Output produced by METARs form (0107 UTC 29 February 2020)

 
METAR text: GCLP 290100Z 01017KT CAVOK 18/13 Q1022 NOSIG
Conditions at: GCLP (LAS PALMAS/GANDO, ES) observed 0100 UTC 29 February 2020
Temperature: 18.0°C (64°F)
Dewpoint: 13.0°C (55°F) [RH = 73%]
Pressure (altimeter): 30.18 inches Hg (1022.0 mb)
Winds: from the N (10 degrees) at 20 MPH (17 knots; 8.7 m/s)
Visibility: 6 or more miles (10+ km)
Ceiling: ceiling and visibility are OK
Clouds: unknown
Weather: no significant weather observed at this time

Forecast for: GCLP (LAS PALMAS/GANDO, ES)
Text: TAF GCLP 282000Z 2821/2921 01018KT 9999 FEW030 TX22/2914Z TN16/2906Z
Forecast period: 2100 UTC 28 February 2020 to 2100 UTC 29 February 2020
Forecast type: FROM: standard forecast or significant change
Winds: from the N (10 degrees) at 21 MPH (18 knots; 9.3 m/s)
Visibility: 6 or more miles 10+ km)
Ceiling: at least 12,000 feet AGL
Clouds: few clouds at 3000 feet AGL
Weather: no significant weather forecast for this period

Fuerteventura / Aeropuerto GCFV

Aviation Digital Data Service (ADDS)

Output produced by METARs form (0107 UTC 29 February 2020)

 
METAR text: GCFV 290100Z AUTO 36010KT CAVOK 17/13 Q1023
Conditions at: GCFV (FUERTEVENTURA AR, ES) observed 0100 UTC 29 February 2020
Temperature: 17.0°C (63°F)
Dewpoint: 13.0°C (55°F) [RH = 77%]
Pressure (altimeter): 30.21 inches Hg (1023.0 mb)
Winds: from the N (360 degrees) at 12 MPH (10 knots; 5.1 m/s)
Visibility: 6 or more miles (10+ km)
Ceiling: ceiling and visibility are OK
Clouds: unknown
Weather: no significant weather observed at this time

Forecast for: GCFV (FUERTEVENTURA AR, ES)
Text: TAF GCFV 282000Z 2821/2921 32009KT CAVOK TX23/2914Z TN16/2906Z
Forecast period: 2100 UTC 28 February 2020 to 0900 UTC 29 February 2020
Forecast type: FROM: standard forecast or significant change
Winds: from the NW (320 degrees) at 10 MPH (9 knots; 4.6 m/s)
Visibility: 6 or more miles 10+ km)
Ceiling: unknown
Clouds: missing
Weather: no significant weather forecast for this period
Text: BECMG 2909/2911 04012KT
Forecast period: 0900 to 2100 UTC 29 February 2020
Forecast type: BECOMING: Conditions expected to become as follows by 1100 UTC 29 February 2020
Winds: from the NE (40 degrees) at 14 MPH (12 knots; 6.2 m/s)
Visibility: 6 or more miles 10+ km)
Ceiling: unknown
Clouds: missing
Weather: no significant weather forecast for this period

Lanzarote / Aeropuerto GCRR

Aviation Digital Data Service (ADDS)

Output produced by METARs form (0107 UTC 29 February 2020)

 
METAR text: GCRR 290100Z 01007KT 340V050 9999 FEW030 18/13 Q1023
Conditions at: GCRR (ARRECIFE/LANZARO, ES) observed 0100 UTC 29 February 2020
Temperature: 18.0°C (64°F)
Dewpoint: 13.0°C (55°F) [RH = 73%]
Pressure (altimeter): 30.21 inches Hg (1023.0 mb)
Winds: from the N (10 degrees) at 8 MPH (7 knots; 3.6 m/s)
Visibility: 6 or more miles (10+ km)
Ceiling: at least 12,000 feet AGL
Clouds: few clouds at 3000 feet AGL
Weather: no significant weather observed at this time

Forecast for: GCRR (ARRECIFE/LANZARO, ES)
Text: TAF GCRR 282000Z 2821/2921 34013KT CAVOK TX24/2914Z TN15/2906Z
Forecast period: 2100 UTC 28 February 2020 to 2100 UTC 29 February 2020
Forecast type: FROM: standard forecast or significant change
Winds: from the NNW (340 degrees) at 15 MPH (13 knots; 6.7 m/s)
Visibility: 6 or more miles 10+ km)
Ceiling: unknown
Clouds: missing
Weather: no significant weather forecast for this period